createdAt,value
2022-10-20T00:02:20.813Z,73.59
2022-10-20T00:05:26.397Z,73.65
2022-10-20T00:08:32.079Z,73.77
2022-10-20T00:11:40.427Z,73.52
2022-10-20T00:14:46.001Z,74.40
2022-10-20T00:17:54.710Z,74.65
2022-10-20T00:21:00.479Z,74.89
2022-10-20T00:24:07.344Z,74.65
2022-10-20T00:27:15.483Z,75.13
2022-10-20T00:30:22.548Z,75.44
2022-10-20T00:33:30.886Z,74.95
2022-10-20T00:36:36.437Z,74.70
2022-10-20T00:39:42.276Z,74.77
2022-10-20T00:42:56.732Z,74.86
2022-10-20T00:46:02.373Z,75.55
2022-10-20T00:49:19.088Z,75.65
2022-10-20T00:52:26.318Z,75.83
2022-10-20T00:55:37.139Z,75.48
2022-10-20T00:58:46.863Z,75.18
2022-10-20T01:01:53.446Z,75.12
2022-10-20T01:04:59.120Z,75.16
2022-10-20T01:08:04.679Z,75.16
2022-10-20T01:11:28.887Z,74.55
2022-10-20T01:14:55.600Z,74.35
2022-10-20T01:18:15.370Z,74.09
2022-10-20T01:21:52.123Z,74.10
2022-10-20T01:25:20.873Z,74.65
2022-10-20T01:28:41.929Z,75.18
2022-10-20T01:31:59.970Z,74.96
2022-10-20T01:35:18.237Z,74.96
2022-10-20T01:38:38.117Z,74.61
2022-10-20T01:41:54.213Z,74.45
2022-10-20T01:45:08.622Z,74.66
2022-10-20T01:48:19.670Z,74.81
2022-10-20T01:51:25.253Z,75.19
2022-10-20T01:54:33.496Z,75.06
2022-10-20T01:58:06.205Z,75.01
2022-10-20T02:01:28.639Z,75.43
2022-10-20T02:05:01.112Z,75.66
2022-10-20T02:08:19.598Z,75.88
2022-10-20T02:11:36.001Z,76.13
2022-10-20T02:14:44.052Z,76.14
2022-10-20T02:18:03.429Z,75.63
2022-10-20T02:21:11.318Z,75.45
2022-10-20T02:24:21.589Z,75.21
2022-10-20T02:27:37.047Z,74.54
2022-10-20T02:30:48.683Z,75.16
2022-10-20T02:34:00.484Z,75.06
2022-10-20T02:37:06.225Z,74.93
2022-10-20T02:40:13.773Z,75.03
2022-10-20T02:43:21.904Z,74.71
2022-10-20T02:46:27.685Z,74.58
2022-10-20T02:49:35.876Z,74.43
2022-10-20T02:52:50.103Z,74.81
2022-10-20T02:55:55.700Z,74.68
2022-10-20T02:59:01.398Z,73.99
2022-10-20T03:02:07.510Z,74.60
2022-10-20T03:05:15.798Z,74.94
2022-10-20T03:08:21.450Z,75.49
2022-10-20T03:11:27.616Z,75.04
2022-10-20T03:14:33.288Z,75.39
2022-10-20T03:17:39.141Z,75.19
2022-10-20T03:20:48.821Z,75.61
2022-10-20T03:23:54.558Z,75.10
2022-10-20T03:27:00.070Z,75.10
2022-10-20T03:30:05.830Z,74.42
2022-10-20T03:33:12.299Z,74.40
2022-10-20T03:36:20.572Z,74.54
2022-10-20T03:39:26.275Z,74.40
2022-10-20T03:42:34.103Z,74.45
2022-10-20T03:45:39.914Z,75.95
2022-10-20T03:48:45.725Z,74.96
2022-10-20T03:51:54.745Z,74.90
2022-10-20T03:55:00.237Z,74.70
2022-10-20T03:58:05.796Z,75.95
2022-10-20T04:01:18.943Z,76.85
2022-10-20T04:04:24.605Z,76.91
2022-10-20T04:07:32.797Z,78.55
2022-10-20T04:10:38.402Z,76.26
2022-10-20T04:13:43.985Z,79.17
2022-10-20T04:16:57.435Z,77.74
2022-10-20T04:20:15.394Z,78.36
2022-10-20T04:23:24.719Z,77.41
2022-10-20T04:26:30.348Z,77.15
2022-10-20T04:29:36.109Z,77.66
2022-10-20T04:32:41.912Z,75.97
2022-10-20T04:35:47.520Z,76.12
2022-10-20T04:38:55.788Z,75.86
2022-10-20T04:42:01.326Z,76.20
2022-10-20T04:45:07.604Z,76.30
2022-10-20T04:48:19.216Z,77.89
2022-10-20T04:51:24.835Z,75.37
2022-10-20T04:54:33.671Z,75.75
2022-10-20T04:57:39.598Z,76.50
2022-10-20T05:00:45.228Z,75.87
2022-10-20T05:03:51.188Z,76.90
2022-10-20T05:06:56.806Z,77.33
2022-10-20T05:10:18.007Z,77.40
2022-10-20T05:13:24.526Z,78.59
2022-10-20T05:16:30.922Z,78.25
2022-10-20T05:19:36.503Z,78.70
2022-10-20T05:22:42.036Z,78.83
2022-10-20T05:25:52.914Z,79.61
2022-10-20T05:28:58.931Z,79.61
2022-10-20T05:32:04.465Z,79.96
2022-10-20T05:35:11.484Z,80.40
2022-10-20T05:38:17.066Z,79.88
2022-10-20T05:41:28.580Z,79.39
2022-10-20T05:44:34.201Z,79.58
2022-10-20T05:47:39.858Z,79.59
2022-10-20T05:50:47.788Z,78.63
2022-10-20T05:53:54.149Z,78.27
2022-10-20T05:57:02.373Z,78.40
2022-10-20T06:00:12.825Z,78.35
2022-10-20T06:03:20.274Z,77.89
2022-10-20T06:06:31.558Z,78.03
2022-10-20T06:09:37.078Z,78.22
2022-10-20T06:12:45.297Z,77.87
2022-10-20T06:15:50.844Z,77.65
2022-10-20T06:18:57.089Z,76.76
2022-10-20T06:22:05.885Z,76.09
2022-10-20T06:25:12.815Z,75.01
2022-10-20T06:28:21.335Z,74.20
2022-10-20T06:31:31.207Z,72.38
2022-10-20T06:34:42.993Z,71.11
2022-10-20T06:37:53.961Z,68.80
2022-10-20T06:40:59.577Z,67.57
2022-10-20T06:44:28.085Z,65.43
2022-10-20T06:47:33.775Z,63.04
2022-10-20T06:50:39.392Z,61.77
2022-10-20T06:53:46.936Z,61.88
2022-10-20T06:56:52.617Z,62.64
2022-10-20T07:00:02.926Z,61.66
2022-10-20T07:03:08.477Z,61.13
2022-10-20T07:06:19.117Z,58.75
2022-10-20T07:09:24.750Z,57.76
2022-10-20T07:12:30.457Z,56.55
2022-10-20T07:15:38.658Z,57.43
2022-10-20T07:22:10.475Z,52.75
2022-10-20T07:25:16.139Z,52.52
2022-10-20T07:28:22.034Z,51.84
2022-10-20T07:31:35.749Z,50.81
2022-10-20T07:34:41.341Z,51.57
2022-10-20T07:37:46.883Z,52.54
2022-10-20T07:40:52.787Z,53.12
2022-10-20T07:44:00.311Z,53.88
2022-10-20T07:47:08.484Z,53.75
2022-10-20T07:50:14.782Z,51.59
2022-10-20T07:53:20.549Z,50.77
2022-10-20T07:56:26.672Z,51.72
2022-10-20T07:59:32.378Z,50.90
2022-10-20T08:02:41.044Z,52.68
2022-10-20T08:05:46.687Z,53.88
2022-10-20T08:08:52.407Z,53.47
2022-10-20T08:11:58.086Z,51.77
2022-10-20T08:15:03.697Z,50.97
2022-10-20T08:18:11.988Z,51.47
2022-10-20T08:21:22.898Z,48.71
2022-10-20T08:24:28.590Z,49.05
2022-10-20T08:27:34.338Z,50.00
2022-10-20T08:30:41.351Z,50.80
2022-10-20T08:33:52.570Z,50.12
2022-10-20T08:36:58.884Z,50.87
2022-10-20T08:40:04.545Z,50.02
2022-10-20T08:43:19.067Z,46.99
2022-10-20T08:46:33.559Z,46.67
2022-10-20T08:49:41.842Z,48.28
2022-10-20T08:52:50.303Z,48.24
2022-10-20T08:55:59.259Z,45.45
2022-10-20T08:59:06.254Z,44.88
2022-10-20T09:02:19.998Z,44.64
2022-10-20T09:05:40.599Z,45.99
2022-10-20T09:08:47.686Z,46.81
2022-10-20T09:11:55.397Z,45.67
2022-10-20T09:15:01.017Z,43.42
2022-10-20T09:18:14.009Z,43.75
2022-10-20T09:21:25.841Z,43.12
2022-10-20T09:24:34.721Z,43.31
2022-10-20T09:27:43.148Z,46.93
2022-10-20T09:30:48.759Z,48.76
2022-10-20T09:33:54.542Z,45.43
2022-10-20T09:37:16.230Z,44.03
2022-10-20T09:40:22.938Z,44.38
2022-10-20T09:43:31.151Z,40.56
2022-10-20T09:46:48.873Z,40.12
2022-10-20T09:50:03.850Z,38.27
2022-10-20T09:53:38.230Z,38.57
2022-10-20T09:56:48.142Z,37.96
2022-10-20T10:00:01.425Z,39.18
2022-10-20T10:03:24.967Z,40.20
2022-10-20T10:06:42.344Z,40.08
2022-10-20T10:10:08.269Z,36.92
2022-10-20T10:13:28.356Z,35.28
2022-10-20T10:16:45.757Z,37.41
2022-10-20T10:19:55.448Z,39.47
2022-10-20T10:23:23.559Z,39.28
2022-10-20T10:27:05.245Z,37.60
2022-10-20T10:30:32.255Z,36.47
2022-10-20T10:33:38.491Z,34.16
2022-10-20T10:36:44.833Z,34.96
2022-10-20T10:39:51.302Z,35.86
2022-10-20T10:43:30.032Z,35.93
2022-10-20T10:46:45.489Z,34.96
2022-10-20T10:50:14.930Z,34.11
2022-10-20T10:53:42.905Z,34.26
2022-10-20T10:56:54.507Z,33.49
2022-10-20T11:00:12.893Z,34.12
2022-10-20T11:03:51.214Z,35.58
2022-10-20T11:07:11.422Z,34.52
2022-10-20T11:10:38.092Z,31.32
2022-10-20T11:14:06.442Z,33.54
2022-10-20T11:17:45.775Z,35.48
2022-10-20T11:21:16.158Z,38.61
2022-10-20T11:24:51.130Z,38.03
2022-10-20T11:28:01.112Z,35.66
2022-10-20T11:31:08.892Z,36.35
2022-10-20T11:34:29.705Z,32.95
2022-10-20T11:37:47.974Z,33.79
2022-10-20T11:41:03.808Z,32.78
2022-10-20T11:44:18.477Z,34.23
2022-10-20T11:47:36.647Z,35.35
2022-10-20T11:50:56.507Z,37.02
2022-10-20T11:54:30.648Z,35.98
2022-10-20T11:58:08.210Z,34.54
2022-10-20T12:01:34.974Z,34.74
2022-10-20T12:05:18.584Z,34.79
2022-10-20T12:09:11.237Z,35.98
2022-10-20T12:12:28.086Z,36.58
2022-10-20T12:15:34.397Z,35.39
2022-10-20T12:18:40.665Z,34.29
2022-10-20T12:22:06.772Z,33.44
2022-10-20T12:25:40.389Z,34.07
2022-10-20T12:28:45.951Z,32.96
2022-10-20T12:32:48.433Z,33.33
2022-10-20T12:36:25.700Z,32.78
2022-10-20T12:39:33.370Z,32.90
2022-10-20T12:42:51.034Z,32.57
2022-10-20T12:46:14.762Z,32.66
2022-10-20T12:49:32.726Z,32.21
2022-10-20T12:52:43.245Z,32.21
2022-10-20T12:56:00.669Z,33.05
2022-10-20T12:59:44.852Z,32.55
2022-10-20T13:02:54.011Z,31.77
2022-10-20T13:05:59.934Z,31.23
2022-10-20T13:09:27.558Z,31.87
2022-10-20T13:12:43.479Z,31.21
2022-10-20T13:15:57.489Z,32.55
2022-10-20T13:19:09.336Z,33.14
2022-10-20T13:22:44.637Z,35.45
2022-10-20T13:25:54.322Z,37.27
2022-10-20T13:29:08.516Z,38.35
2022-10-20T13:32:35.141Z,37.89
2022-10-20T13:35:56.255Z,39.52
2022-10-20T13:39:17.423Z,40.00
2022-10-20T13:42:44.752Z,39.98
2022-10-20T13:46:40.362Z,39.33
2022-10-20T13:53:48.558Z,41.22
2022-10-20T13:56:55.085Z,41.59
2022-10-20T14:00:08.214Z,42.25
2022-10-20T14:03:21.137Z,42.96
2022-10-20T14:06:39.091Z,42.14
2022-10-20T14:09:49.369Z,42.42
2022-10-20T14:12:59.592Z,42.92
2022-10-20T14:16:19.589Z,42.88
2022-10-20T14:19:28.333Z,43.03
2022-10-20T14:22:41.096Z,43.42
2022-10-20T14:25:49.037Z,43.41
2022-10-20T14:28:58.030Z,43.56
2022-10-20T14:32:04.834Z,43.31
2022-10-20T14:35:28.926Z,43.84
2022-10-20T14:38:40.096Z,43.62
2022-10-20T14:41:49.754Z,43.27
2022-10-20T14:44:59.202Z,43.95
2022-10-20T14:48:09.584Z,43.95
2022-10-20T14:51:39.895Z,44.18
2022-10-20T14:55:00.110Z,44.86
2022-10-20T14:58:41.041Z,45.36
2022-10-20T15:02:08.965Z,45.43
2022-10-20T15:05:40.560Z,45.72
2022-10-20T15:08:58.049Z,46.14
2022-10-20T15:12:18.587Z,46.76
2022-10-20T15:15:29.220Z,46.85
2022-10-20T15:18:39.282Z,46.49
2022-10-20T15:21:45.638Z,46.95
2022-10-20T15:24:51.510Z,47.13
2022-10-20T15:28:03.376Z,47.26
2022-10-20T15:31:21.680Z,47.61
2022-10-20T15:34:27.354Z,48.26
2022-10-20T15:37:34.715Z,48.74
2022-10-20T15:40:40.295Z,49.03
2022-10-20T15:43:48.565Z,49.07
2022-10-20T15:46:56.572Z,49.53
2022-10-20T15:50:08.248Z,49.75
2022-10-20T15:53:17.926Z,50.25
2022-10-20T15:56:24.214Z,50.84
2022-10-20T15:59:32.433Z,50.92
2022-10-20T16:02:38.171Z,51.11
2022-10-20T16:05:44.078Z,51.19
2022-10-20T16:08:53.464Z,52.02
2022-10-20T16:11:59.221Z,52.51
2022-10-20T16:15:10.241Z,52.71
2022-10-20T16:18:17.054Z,53.38
2022-10-20T16:21:22.670Z,53.86
2022-10-20T16:24:28.288Z,54.49
2022-10-20T16:27:38.060Z,55.53
2022-10-20T16:30:46.466Z,56.48
2022-10-20T16:33:51.990Z,56.70
2022-10-20T16:37:07.063Z,57.24
2022-10-20T16:40:13.818Z,57.47
2022-10-20T16:43:19.422Z,57.34
2022-10-20T16:46:27.662Z,57.41
2022-10-20T16:49:33.414Z,57.58
2022-10-20T16:52:39.032Z,58.01
2022-10-20T16:55:55.668Z,58.12
2022-10-20T16:59:02.058Z,58.51
2022-10-20T17:02:10.528Z,58.91
2022-10-20T17:05:16.727Z,59.00
2022-10-20T17:08:31.892Z,59.38
2022-10-20T17:11:40.456Z,59.32
2022-10-20T17:14:46.042Z,59.77
2022-10-20T17:17:54.212Z,59.98
2022-10-20T17:20:59.935Z,59.97
2022-10-20T17:24:22.527Z,60.34
2022-10-20T17:27:29.180Z,60.31
2022-10-20T17:30:36.205Z,60.92
2022-10-20T17:33:45.100Z,61.32
2022-10-20T17:36:55.629Z,61.59
2022-10-20T17:40:01.215Z,61.79
2022-10-20T17:43:29.215Z,61.68
2022-10-20T17:46:35.200Z,61.94
2022-10-20T17:49:43.911Z,62.19
2022-10-20T17:52:49.400Z,62.27
2022-10-20T17:55:54.993Z,62.75
2022-10-20T17:59:03.178Z,62.52
2022-10-20T18:02:08.990Z,62.92
2022-10-20T18:05:18.026Z,62.94
2022-10-20T18:08:23.763Z,62.80
2022-10-20T18:11:33.845Z,62.68
2022-10-20T18:14:39.538Z,63.31
2022-10-20T18:17:45.136Z,63.64
2022-10-20T18:21:00.638Z,63.15
2022-10-20T18:24:10.263Z,63.71
2022-10-20T18:27:15.909Z,63.71
2022-10-20T18:30:21.667Z,64.04
2022-10-20T18:33:27.245Z,63.86
2022-10-20T18:36:39.103Z,64.14
2022-10-20T18:39:47.944Z,64.21
2022-10-20T18:42:53.513Z,64.14
2022-10-20T18:45:59.156Z,64.56
2022-10-20T18:49:08.108Z,64.75
2022-10-20T18:52:16.245Z,64.82
2022-10-20T18:55:21.802Z,64.68
2022-10-20T18:58:28.163Z,65.72
2022-10-20T19:01:37.918Z,66.11
2022-10-20T19:04:43.718Z,65.79
2022-10-20T19:07:51.976Z,66.30
2022-10-20T19:10:58.406Z,66.49
2022-10-20T19:14:04.846Z,66.74
2022-10-20T19:17:10.392Z,67.17
2022-10-20T19:20:16.202Z,66.68
2022-10-20T19:23:24.646Z,67.59
2022-10-20T19:26:33.482Z,68.34
2022-10-20T19:29:39.346Z,69.12
2022-10-20T19:32:45.134Z,68.95
2022-10-20T19:35:52.442Z,68.52
2022-10-20T19:39:03.974Z,68.21
2022-10-20T19:42:13.896Z,69.31
2022-10-20T19:45:19.752Z,69.23
2022-10-20T19:48:26.798Z,69.36
2022-10-20T19:51:33.448Z,69.61
2022-10-20T19:54:42.090Z,69.23
2022-10-20T19:57:48.152Z,69.11
2022-10-20T20:00:59.776Z,69.79
2022-10-20T20:04:06.904Z,69.42
2022-10-20T20:07:13.057Z,69.17
2022-10-20T20:10:21.614Z,69.34
2022-10-20T20:13:29.503Z,69.13
2022-10-20T20:16:35.538Z,69.58
2022-10-20T20:19:41.360Z,69.58
2022-10-20T20:22:47.478Z,69.53
2022-10-20T20:29:03.335Z,70.45
2022-10-20T20:32:09.598Z,70.27
2022-10-20T20:35:15.478Z,70.40
2022-10-20T20:38:21.193Z,71.11
2022-10-20T20:41:31.988Z,70.63
2022-10-20T20:44:37.689Z,70.47
2022-10-20T20:47:46.792Z,70.88
2022-10-20T20:50:56.368Z,70.84
2022-10-20T20:54:02.226Z,71.07
2022-10-20T20:57:10.387Z,71.53
2022-10-20T21:00:17.422Z,71.42
2022-10-20T21:03:23.330Z,71.67
2022-10-20T21:06:56.627Z,71.22
2022-10-20T21:09:56.620Z,72.37
2022-10-20T21:13:04.920Z,72.33
2022-10-20T21:16:13.629Z,72.09
2022-10-20T21:19:20.352Z,71.89
2022-10-20T21:22:28.746Z,72.17
2022-10-20T21:25:34.297Z,72.28
2022-10-20T21:28:43.832Z,72.54
2022-10-20T21:31:49.779Z,72.61
2022-10-20T21:34:55.466Z,72.39
2022-10-20T21:38:01.058Z,72.48
2022-10-20T21:41:08.605Z,73.29
2022-10-20T21:44:17.835Z,73.45
2022-10-20T21:47:23.466Z,73.28
2022-10-20T21:50:28.944Z,73.75
2022-10-20T21:53:34.448Z,74.05
2022-10-20T21:56:44.452Z,74.06
2022-10-20T21:59:52.704Z,74.87
2022-10-20T22:02:58.274Z,74.98
2022-10-20T22:06:06.249Z,74.81
2022-10-20T22:09:15.815Z,74.38
2022-10-20T22:12:21.510Z,74.34
2022-10-20T22:15:29.755Z,74.78
2022-10-20T22:18:35.416Z,74.81
2022-10-20T22:21:43.200Z,74.74
2022-10-20T22:24:48.769Z,74.46
2022-10-20T22:27:54.405Z,74.28
2022-10-20T22:31:02.856Z,73.86
2022-10-20T22:34:09.598Z,74.59
2022-10-20T22:37:15.119Z,74.70
2022-10-20T22:40:20.688Z,75.43
2022-10-20T22:43:26.190Z,75.75
2022-10-20T22:46:34.407Z,76.10
2022-10-20T22:49:39.993Z,76.27
2022-10-20T22:52:46.082Z,75.74
2022-10-20T22:55:51.636Z,75.63
2022-10-20T22:58:57.615Z,75.85
2022-10-20T23:02:05.818Z,76.33
2022-10-20T23:05:12.272Z,76.35
2022-10-20T23:08:17.985Z,76.51
2022-10-20T23:11:24.688Z,76.71
2022-10-20T23:14:30.280Z,76.94
2022-10-20T23:17:38.760Z,76.55
2022-10-20T23:20:44.542Z,76.35
2022-10-20T23:23:50.057Z,76.18
2022-10-20T23:26:55.688Z,76.16
2022-10-20T23:30:01.284Z,75.86
2022-10-20T23:33:09.463Z,75.26
2022-10-20T23:36:17.782Z,75.48
2022-10-20T23:39:23.439Z,75.55
2022-10-20T23:42:29.062Z,75.54
2022-10-20T23:45:37.011Z,76.07
2022-10-20T23:48:46.044Z,76.26
2022-10-20T23:51:51.639Z,76.27
2022-10-20T23:54:57.217Z,76.37
2022-10-20T23:58:02.867Z,76.54
